sensor_id;sensor_type;location;lat;lon;timestamp;P1;durP1;ratioP1;P2;durP2;ratioP2
63555;SDS011;49700;48.072;7.800;2023-05-07T00:02:21;3.63;;;3.33;;
63555;SDS011;49700;48.072;7.800;2023-05-07T00:04:47;3.28;;;3.03;;
63555;SDS011;49700;48.072;7.800;2023-05-07T00:07:14;6.78;;;3.97;;
63555;SDS011;49700;48.072;7.800;2023-05-07T00:09:39;5.13;;;3.35;;
63555;SDS011;49700;48.072;7.800;2023-05-07T00:12:05;3.40;;;3.10;;
63555;SDS011;49700;48.072;7.800;2023-05-07T00:14:31;2.97;;;2.67;;
63555;SDS011;49700;48.072;7.800;2023-05-07T00:16:57;4.37;;;3.87;;
63555;SDS011;49700;48.072;7.800;2023-05-07T00:19:22;2.53;;;2.33;;
63555;SDS011;49700;48.072;7.800;2023-05-07T00:21:48;2.77;;;2.50;;
63555;SDS011;49700;48.072;7.800;2023-05-07T00:24:13;3.30;;;3.00;;
63555;SDS011;49700;48.072;7.800;2023-05-07T00:26:39;5.37;;;2.73;;
63555;SDS011;49700;48.072;7.800;2023-05-07T00:29:04;7.20;;;2.97;;
63555;SDS011;49700;48.072;7.800;2023-05-07T00:31:29;4.73;;;3.43;;
63555;SDS011;49700;48.072;7.800;2023-05-07T00:33:55;3.60;;;3.30;;
63555;SDS011;49700;48.072;7.800;2023-05-07T00:36:20;3.58;;;3.20;;
63555;SDS011;49700;48.072;7.800;2023-05-07T00:38:46;4.83;;;3.50;;
63555;SDS011;49700;48.072;7.800;2023-05-07T00:41:11;3.60;;;2.60;;
63555;SDS011;49700;48.072;7.800;2023-05-07T00:43:37;4.93;;;3.30;;
63555;SDS011;49700;48.072;7.800;2023-05-07T00:46:03;3.72;;;3.00;;
63555;SDS011;49700;48.072;7.800;2023-05-07T00:48:28;5.30;;;3.80;;
63555;SDS011;49700;48.072;7.800;2023-05-07T00:50:55;4.15;;;3.70;;
63555;SDS011;49700;48.072;7.800;2023-05-07T00:53:21;4.22;;;3.13;;
63555;SDS011;49700;48.072;7.800;2023-05-07T00:55:47;4.10;;;3.30;;
63555;SDS011;49700;48.072;7.800;2023-05-07T00:58:13;3.87;;;3.17;;
63555;SDS011;49700;48.072;7.800;2023-05-07T01:00:38;3.03;;;2.83;;
63555;SDS011;49700;48.072;7.800;2023-05-07T01:03:04;9.50;;;3.70;;
63555;SDS011;49700;48.072;7.800;2023-05-07T01:05:30;3.90;;;3.50;;
63555;SDS011;49700;48.072;7.800;2023-05-07T01:07:56;2.67;;;2.23;;
63555;SDS011;49700;48.072;7.800;2023-05-07T01:10:22;4.03;;;2.25;;
63555;SDS011;49700;48.072;7.800;2023-05-07T01:12:48;2.50;;;2.30;;
63555;SDS011;49700;48.072;7.800;2023-05-07T01:15:15;3.17;;;2.90;;
63555;SDS011;49700;48.072;7.800;2023-05-07T01:17:41;3.13;;;2.72;;
63555;SDS011;49700;48.072;7.800;2023-05-07T01:20:14;4.93;;;2.95;;
63555;SDS011;49700;48.072;7.800;2023-05-07T01:22:41;3.88;;;3.15;;
63555;SDS011;49700;48.072;7.800;2023-05-07T01:25:09;2.90;;;2.60;;
63555;SDS011;49700;48.072;7.800;2023-05-07T01:27:39;2.63;;;2.42;;
63555;SDS011;49700;48.072;7.800;2023-05-07T01:30:04;3.60;;;3.23;;
63555;SDS011;49700;48.072;7.800;2023-05-07T01:32:43;3.45;;;3.15;;
63555;SDS011;49700;48.072;7.800;2023-05-07T01:35:18;3.80;;;3.40;;
63555;SDS011;49700;48.072;7.800;2023-05-07T01:37:47;5.78;;;3.80;;
63555;SDS011;49700;48.072;7.800;2023-05-07T01:42:56;5.32;;;4.40;;
63555;SDS011;49700;48.072;7.800;2023-05-07T01:45:27;6.70;;;4.50;;
63555;SDS011;49700;48.072;7.800;2023-05-07T01:47:53;4.75;;;3.85;;
63555;SDS011;49700;48.072;7.800;2023-05-07T01:50:20;7.32;;;4.07;;
63555;SDS011;49700;48.072;7.800;2023-05-07T01:53:07;7.75;;;4.30;;
63555;SDS011;49700;48.072;7.800;2023-05-07T01:55:33;5.07;;;3.55;;
63555;SDS011;49700;48.072;7.800;2023-05-07T01:57:59;3.30;;;3.00;;
63555;SDS011;49700;48.072;7.800;2023-05-07T02:00:25;4.27;;;3.77;;
63555;SDS011;49700;48.072;7.800;2023-05-07T02:02:50;3.73;;;3.20;;
63555;SDS011;49700;48.072;7.800;2023-05-07T02:05:28;3.70;;;3.30;;
63555;SDS011;49700;48.072;7.800;2023-05-07T02:08:09;3.42;;;3.03;;
63555;SDS011;49700;48.072;7.800;2023-05-07T02:10:36;3.20;;;2.90;;
63555;SDS011;49700;48.072;7.800;2023-05-07T02:13:04;8.32;;;4.10;;
63555;SDS011;49700;48.072;7.800;2023-05-07T02:15:29;3.77;;;3.30;;
63555;SDS011;49700;48.072;7.800;2023-05-07T02:18:04;4.20;;;3.70;;
63555;SDS011;49700;48.072;7.800;2023-05-07T02:20:34;3.70;;;3.40;;
63555;SDS011;49700;48.072;7.800;2023-05-07T02:23:01;4.55;;;4.20;;
63555;SDS011;49700;48.072;7.800;2023-05-07T02:25:28;3.17;;;2.80;;
63555;SDS011;49700;48.072;7.800;2023-05-07T02:27:54;3.67;;;3.38;;
63555;SDS011;49700;48.072;7.800;2023-05-07T02:30:24;5.13;;;3.72;;
63555;SDS011;49700;48.072;7.800;2023-05-07T02:32:52;3.92;;;3.63;;
63555;SDS011;49700;48.072;7.800;2023-05-07T02:35:17;3.87;;;2.93;;
63555;SDS011;49700;48.072;7.800;2023-05-07T02:37:43;4.30;;;3.90;;
63555;SDS011;49700;48.072;7.800;2023-05-07T02:40:09;3.50;;;3.20;;
63555;SDS011;49700;48.072;7.800;2023-05-07T02:42:35;3.88;;;3.45;;
63555;SDS011;49700;48.072;7.800;2023-05-07T02:45:01;3.43;;;3.13;;
63555;SDS011;49700;48.072;7.800;2023-05-07T02:47:27;9.13;;;3.30;;
63555;SDS011;49700;48.072;7.800;2023-05-07T02:49:54;3.50;;;3.20;;
63555;SDS011;49700;48.072;7.800;2023-05-07T02:52:20;3.50;;;3.20;;
63555;SDS011;49700;48.072;7.800;2023-05-07T02:54:46;6.55;;;3.05;;
63555;SDS011;49700;48.072;7.800;2023-05-07T02:57:12;3.20;;;2.90;;
63555;SDS011;49700;48.072;7.800;2023-05-07T02:59:37;6.87;;;4.20;;
63555;SDS011;49700;48.072;7.800;2023-05-07T03:02:03;3.80;;;3.50;;
63555;SDS011;49700;48.072;7.800;2023-05-07T03:04:28;5.30;;;4.00;;
63555;SDS011;49700;48.072;7.800;2023-05-07T03:06:54;12.03;;;4.60;;
63555;SDS011;49700;48.072;7.800;2023-05-07T03:09:19;6.63;;;5.17;;
63555;SDS011;49700;48.072;7.800;2023-05-07T03:11:45;19.80;;;9.70;;
63555;SDS011;49700;48.072;7.800;2023-05-07T03:14:11;25.33;;;14.37;;
63555;SDS011;49700;48.072;7.800;2023-05-07T03:16:37;29.13;;;14.88;;
63555;SDS011;49700;48.072;7.800;2023-05-07T03:19:03;18.17;;;11.40;;
63555;SDS011;49700;48.072;7.800;2023-05-07T03:21:28;17.00;;;9.07;;
63555;SDS011;49700;48.072;7.800;2023-05-07T03:23:55;17.95;;;9.98;;
63555;SDS011;49700;48.072;7.800;2023-05-07T03:26:21;14.00;;;7.87;;
63555;SDS011;49700;48.072;7.800;2023-05-07T03:28:47;10.88;;;6.70;;
63555;SDS011;49700;48.072;7.800;2023-05-07T03:31:15;4.90;;;4.38;;
63555;SDS011;49700;48.072;7.800;2023-05-07T03:33:54;8.53;;;5.20;;
63555;SDS011;49700;48.072;7.800;2023-05-07T03:36:22;6.65;;;4.97;;
63555;SDS011;49700;48.072;7.800;2023-05-07T03:38:49;3.35;;;3.05;;
63555;SDS011;49700;48.072;7.800;2023-05-07T03:41:18;4.30;;;3.90;;
63555;SDS011;49700;48.072;7.800;2023-05-07T03:43:45;5.07;;;4.05;;
63555;SDS011;49700;48.072;7.800;2023-05-07T03:46:11;5.63;;;4.00;;
63555;SDS011;49700;48.072;7.800;2023-05-07T03:48:37;5.23;;;4.10;;
63555;SDS011;49700;48.072;7.800;2023-05-07T03:51:03;5.38;;;4.75;;
63555;SDS011;49700;48.072;7.800;2023-05-07T03:53:31;7.15;;;4.45;;
63555;SDS011;49700;48.072;7.800;2023-05-07T03:55:57;8.77;;;5.00;;
63555;SDS011;49700;48.072;7.800;2023-05-07T03:58:22;6.20;;;4.73;;
63555;SDS011;49700;48.072;7.800;2023-05-07T04:00:49;5.65;;;5.03;;
63555;SDS011;49700;48.072;7.800;2023-05-07T04:03:25;7.85;;;4.82;;
63555;SDS011;49700;48.072;7.800;2023-05-07T04:05:51;5.38;;;4.05;;
63555;SDS011;49700;48.072;7.800;2023-05-07T04:08:16;4.83;;;3.73;;
63555;SDS011;49700;48.072;7.800;2023-05-07T04:10:46;9.82;;;4.95;;
63555;SDS011;49700;48.072;7.800;2023-05-07T04:13:12;4.95;;;3.78;;
63555;SDS011;49700;48.072;7.800;2023-05-07T04:15:38;5.17;;;4.70;;
63555;SDS011;49700;48.072;7.800;2023-05-07T04:18:07;7.93;;;6.70;;
63555;SDS011;49700;48.072;7.800;2023-05-07T04:20:34;6.18;;;5.20;;
63555;SDS011;49700;48.072;7.800;2023-05-07T04:23:02;7.18;;;4.70;;
63555;SDS011;49700;48.072;7.800;2023-05-07T04:25:28;8.93;;;4.50;;
63555;SDS011;49700;48.072;7.800;2023-05-07T04:28:00;7.57;;;4.18;;
63555;SDS011;49700;48.072;7.800;2023-05-07T04:30:27;4.88;;;4.35;;
63555;SDS011;49700;48.072;7.800;2023-05-07T04:32:53;5.83;;;4.97;;
63555;SDS011;49700;48.072;7.800;2023-05-07T04:35:19;8.10;;;3.70;;
63555;SDS011;49700;48.072;7.800;2023-05-07T04:37:45;4.97;;;3.73;;
63555;SDS011;49700;48.072;7.800;2023-05-07T04:40:12;5.18;;;3.90;;
63555;SDS011;49700;48.072;7.800;2023-05-07T04:42:38;4.43;;;4.07;;
63555;SDS011;49700;48.072;7.800;2023-05-07T04:45:03;4.00;;;3.57;;
63555;SDS011;49700;48.072;7.800;2023-05-07T04:47:32;3.08;;;2.80;;
63555;SDS011;49700;48.072;7.800;2023-05-07T04:49:59;2.50;;;2.30;;
63555;SDS011;49700;48.072;7.800;2023-05-07T04:52:24;2.33;;;2.13;;
63555;SDS011;49700;48.072;7.800;2023-05-07T04:54:51;2.85;;;2.50;;
63555;SDS011;49700;48.072;7.800;2023-05-07T04:57:16;3.97;;;3.20;;
63555;SDS011;49700;48.072;7.800;2023-05-07T04:59:45;4.82;;;4.00;;
63555;SDS011;49700;48.072;7.800;2023-05-07T05:02:11;3.50;;;3.10;;
63555;SDS011;49700;48.072;7.800;2023-05-07T05:04:36;3.53;;;3.00;;
63555;SDS011;49700;48.072;7.800;2023-05-07T05:07:03;3.90;;;3.55;;
63555;SDS011;49700;48.072;7.800;2023-05-07T05:09:29;7.20;;;3.58;;
63555;SDS011;49700;48.072;7.800;2023-05-07T05:11:55;3.70;;;3.40;;
63555;SDS011;49700;48.072;7.800;2023-05-07T05:14:21;4.17;;;3.60;;
63555;SDS011;49700;48.072;7.800;2023-05-07T05:16:46;3.63;;;3.20;;
63555;SDS011;49700;48.072;7.800;2023-05-07T05:19:12;4.17;;;3.77;;
63555;SDS011;49700;48.072;7.800;2023-05-07T05:21:38;4.80;;;3.67;;
63555;SDS011;49700;48.072;7.800;2023-05-07T05:24:07;4.90;;;4.50;;
63555;SDS011;49700;48.072;7.800;2023-05-07T05:26:33;4.70;;;4.00;;
63555;SDS011;49700;48.072;7.800;2023-05-07T05:29:00;5.78;;;4.03;;
63555;SDS011;49700;48.072;7.800;2023-05-07T05:31:28;5.07;;;3.25;;
63555;SDS011;49700;48.072;7.800;2023-05-07T05:33:54;6.97;;;4.60;;
63555;SDS011;49700;48.072;7.800;2023-05-07T05:36:20;5.07;;;4.20;;
63555;SDS011;49700;48.072;7.800;2023-05-07T05:38:47;4.78;;;4.38;;
63555;SDS011;49700;48.072;7.800;2023-05-07T05:41:13;4.37;;;3.97;;
63555;SDS011;49700;48.072;7.800;2023-05-07T05:43:38;5.30;;;4.23;;
63555;SDS011;49700;48.072;7.800;2023-05-07T05:46:04;5.20;;;3.97;;
63555;SDS011;49700;48.072;7.800;2023-05-07T05:48:29;7.00;;;4.80;;
63555;SDS011;49700;48.072;7.800;2023-05-07T05:50:56;5.43;;;4.95;;
63555;SDS011;49700;48.072;7.800;2023-05-07T05:53:21;6.37;;;5.77;;
63555;SDS011;49700;48.072;7.800;2023-05-07T05:55:47;7.60;;;5.00;;
63555;SDS011;49700;48.072;7.800;2023-05-07T05:58:13;6.37;;;5.30;;
63555;SDS011;49700;48.072;7.800;2023-05-07T06:00:44;6.85;;;4.47;;
63555;SDS011;49700;48.072;7.800;2023-05-07T06:03:09;5.35;;;4.90;;
63555;SDS011;49700;48.072;7.800;2023-05-07T06:05:35;6.10;;;4.80;;
63555;SDS011;49700;48.072;7.800;2023-05-07T06:08:01;5.50;;;5.00;;
63555;SDS011;49700;48.072;7.800;2023-05-07T06:10:30;6.95;;;4.72;;
63555;SDS011;49700;48.072;7.800;2023-05-07T06:12:56;5.03;;;4.50;;
63555;SDS011;49700;48.072;7.800;2023-05-07T06:15:22;6.20;;;5.00;;
63555;SDS011;49700;48.072;7.800;2023-05-07T06:17:47;6.90;;;4.70;;
63555;SDS011;49700;48.072;7.800;2023-05-07T06:20:14;5.07;;;4.67;;
63555;SDS011;49700;48.072;7.800;2023-05-07T06:22:43;6.60;;;5.50;;
63555;SDS011;49700;48.072;7.800;2023-05-07T06:25:09;7.87;;;5.00;;
63555;SDS011;49700;48.072;7.800;2023-05-07T06:27:36;5.43;;;4.93;;
63555;SDS011;49700;48.072;7.800;2023-05-07T06:30:01;6.00;;;5.50;;
63555;SDS011;49700;48.072;7.800;2023-05-07T06:32:27;6.20;;;5.53;;
63555;SDS011;49700;48.072;7.800;2023-05-07T06:34:53;6.17;;;5.43;;
63555;SDS011;49700;48.072;7.800;2023-05-07T06:37:18;7.23;;;5.97;;
63555;SDS011;49700;48.072;7.800;2023-05-07T06:39:56;6.80;;;6.20;;
63555;SDS011;49700;48.072;7.800;2023-05-07T06:42:22;5.83;;;5.23;;
63555;SDS011;49700;48.072;7.800;2023-05-07T06:44:48;6.80;;;5.80;;
63555;SDS011;49700;48.072;7.800;2023-05-07T06:47:16;6.30;;;5.70;;
63555;SDS011;49700;48.072;7.800;2023-05-07T06:49:44;6.60;;;6.00;;
63555;SDS011;49700;48.072;7.800;2023-05-07T06:52:12;5.70;;;5.20;;
63555;SDS011;49700;48.072;7.800;2023-05-07T06:54:38;8.53;;;6.03;;
63555;SDS011;49700;48.072;7.800;2023-05-07T06:57:03;6.83;;;6.23;;
63555;SDS011;49700;48.072;7.800;2023-05-07T06:59:30;5.80;;;5.20;;
63555;SDS011;49700;48.072;7.800;2023-05-07T07:01:55;5.60;;;5.20;;
63555;SDS011;49700;48.072;7.800;2023-05-07T07:04:21;7.03;;;6.03;;
63555;SDS011;49700;48.072;7.800;2023-05-07T07:06:54;5.40;;;4.90;;
63555;SDS011;49700;48.072;7.800;2023-05-07T07:09:19;6.93;;;6.33;;
63555;SDS011;49700;48.072;7.800;2023-05-07T07:11:45;6.80;;;5.60;;
63555;SDS011;49700;48.072;7.800;2023-05-07T07:14:10;9.03;;;6.37;;
63555;SDS011;49700;48.072;7.800;2023-05-07T07:16:43;7.17;;;6.50;;
63555;SDS011;49700;48.072;7.800;2023-05-07T07:19:09;7.93;;;6.10;;
63555;SDS011;49700;48.072;7.800;2023-05-07T07:21:35;6.07;;;5.57;;
63555;SDS011;49700;48.072;7.800;2023-05-07T07:24:00;5.87;;;5.37;;
63555;SDS011;49700;48.072;7.800;2023-05-07T07:26:26;5.80;;;5.30;;
63555;SDS011;49700;48.072;7.800;2023-05-07T07:28:51;7.63;;;5.40;;
63555;SDS011;49700;48.072;7.800;2023-05-07T07:31:19;5.60;;;5.10;;
63555;SDS011;49700;48.072;7.800;2023-05-07T07:33:46;6.63;;;5.50;;
63555;SDS011;49700;48.072;7.800;2023-05-07T07:36:12;6.63;;;5.20;;
63555;SDS011;49700;48.072;7.800;2023-05-07T07:38:38;4.93;;;4.47;;
63555;SDS011;49700;48.072;7.800;2023-05-07T07:41:04;7.93;;;4.87;;
63555;SDS011;49700;48.072;7.800;2023-05-07T07:43:29;5.43;;;4.63;;
63555;SDS011;49700;48.072;7.800;2023-05-07T07:45:55;5.00;;;4.50;;
63555;SDS011;49700;48.072;7.800;2023-05-07T07:48:20;4.60;;;4.10;;
63555;SDS011;49700;48.072;7.800;2023-05-07T07:50:48;5.57;;;4.90;;
63555;SDS011;49700;48.072;7.800;2023-05-07T07:53:16;4.20;;;3.90;;
63555;SDS011;49700;48.072;7.800;2023-05-07T07:55:42;5.43;;;4.93;;
63555;SDS011;49700;48.072;7.800;2023-05-07T07:58:10;6.87;;;5.80;;
63555;SDS011;49700;48.072;7.800;2023-05-07T08:00:36;4.83;;;4.43;;
63555;SDS011;49700;48.072;7.800;2023-05-07T08:03:02;6.53;;;5.47;;
63555;SDS011;49700;48.072;7.800;2023-05-07T08:05:32;5.30;;;4.90;;
63555;SDS011;49700;48.072;7.800;2023-05-07T08:07:58;5.37;;;4.87;;
63555;SDS011;49700;48.072;7.800;2023-05-07T08:10:31;4.80;;;4.30;;
63555;SDS011;49700;48.072;7.800;2023-05-07T08:13:04;5.40;;;4.90;;
63555;SDS011;49700;48.072;7.800;2023-05-07T08:15:30;6.10;;;4.30;;
63555;SDS011;49700;48.072;7.800;2023-05-07T08:17:55;14.63;;;5.30;;
63555;SDS011;49700;48.072;7.800;2023-05-07T08:20:23;4.60;;;4.20;;
63555;SDS011;49700;48.072;7.800;2023-05-07T08:22:49;3.63;;;3.33;;
63555;SDS011;49700;48.072;7.800;2023-05-07T08:25:16;5.70;;;3.20;;
63555;SDS011;49700;48.072;7.800;2023-05-07T08:27:41;5.30;;;3.70;;
63555;SDS011;49700;48.072;7.800;2023-05-07T08:30:07;4.93;;;4.43;;
63555;SDS011;49700;48.072;7.800;2023-05-07T08:32:33;4.27;;;3.87;;
63555;SDS011;49700;48.072;7.800;2023-05-07T08:34:59;6.73;;;4.10;;
63555;SDS011;49700;48.072;7.800;2023-05-07T08:37:24;4.50;;;3.93;;
63555;SDS011;49700;48.072;7.800;2023-05-07T08:39:50;5.63;;;4.47;;
63555;SDS011;49700;48.072;7.800;2023-05-07T08:42:19;4.80;;;3.70;;
63555;SDS011;49700;48.072;7.800;2023-05-07T08:44:48;4.63;;;4.17;;
63555;SDS011;49700;48.072;7.800;2023-05-07T08:47:19;3.40;;;3.20;;
63555;SDS011;49700;48.072;7.800;2023-05-07T08:49:45;4.17;;;3.83;;
63555;SDS011;49700;48.072;7.800;2023-05-07T08:52:12;5.40;;;4.10;;
63555;SDS011;49700;48.072;7.800;2023-05-07T08:54:38;6.17;;;4.10;;
63555;SDS011;49700;48.072;7.800;2023-05-07T08:57:05;6.23;;;5.20;;
63555;SDS011;49700;48.072;7.800;2023-05-07T08:59:33;5.40;;;4.90;;
63555;SDS011;49700;48.072;7.800;2023-05-07T09:01:58;7.37;;;5.20;;
63555;SDS011;49700;48.072;7.800;2023-05-07T09:04:24;5.03;;;4.57;;
63555;SDS011;49700;48.072;7.800;2023-05-07T09:06:50;6.70;;;6.10;;
63555;SDS011;49700;48.072;7.800;2023-05-07T09:09:18;5.30;;;4.57;;
63555;SDS011;49700;48.072;7.800;2023-05-07T09:11:44;6.10;;;5.03;;
63555;SDS011;49700;48.072;7.800;2023-05-07T09:14:11;5.63;;;4.37;;
63555;SDS011;49700;48.072;7.800;2023-05-07T09:16:40;6.37;;;5.07;;
63555;SDS011;49700;48.072;7.800;2023-05-07T09:19:05;6.20;;;5.70;;
63555;SDS011;49700;48.072;7.800;2023-05-07T09:21:31;4.60;;;4.20;;
63555;SDS011;49700;48.072;7.800;2023-05-07T09:24:00;5.80;;;5.30;;
63555;SDS011;49700;48.072;7.800;2023-05-07T09:26:33;5.87;;;5.20;;
63555;SDS011;49700;48.072;7.800;2023-05-07T09:29:01;7.97;;;5.17;;
63555;SDS011;49700;48.072;7.800;2023-05-07T09:31:26;4.80;;;4.40;;
63555;SDS011;49700;48.072;7.800;2023-05-07T09:33:53;7.20;;;5.07;;
63555;SDS011;49700;48.072;7.800;2023-05-07T09:36:22;5.78;;;5.28;;
63555;SDS011;49700;48.072;7.800;2023-05-07T09:38:48;5.20;;;4.70;;
63555;SDS011;49700;48.072;7.800;2023-05-07T09:41:15;7.20;;;5.83;;
63555;SDS011;49700;48.072;7.800;2023-05-07T09:43:54;5.23;;;4.57;;
63555;SDS011;49700;48.072;7.800;2023-05-07T09:46:23;6.00;;;4.60;;
63555;SDS011;49700;48.072;7.800;2023-05-07T09:48:52;6.90;;;4.70;;
63555;SDS011;49700;48.072;7.800;2023-05-07T09:53:58;5.73;;;4.90;;
63555;SDS011;49700;48.072;7.800;2023-05-07T09:56:28;4.57;;;4.10;;
63555;SDS011;49700;48.072;7.800;2023-05-07T09:58:56;5.53;;;4.83;;
63555;SDS011;49700;48.072;7.800;2023-05-07T10:01:26;9.20;;;5.40;;
63555;SDS011;49700;48.072;7.800;2023-05-07T10:03:52;4.30;;;3.80;;
63555;SDS011;49700;48.072;7.800;2023-05-07T10:06:21;4.53;;;4.10;;
63555;SDS011;49700;48.072;7.800;2023-05-07T10:08:47;4.20;;;3.77;;
63555;SDS011;49700;48.072;7.800;2023-05-07T10:11:14;3.93;;;3.63;;
63555;SDS011;49700;48.072;7.800;2023-05-07T10:13:41;4.17;;;3.63;;
63555;SDS011;49700;48.072;7.800;2023-05-07T10:16:08;4.37;;;3.97;;
63555;SDS011;49700;48.072;7.800;2023-05-07T10:18:40;3.80;;;3.40;;
63555;SDS011;49700;48.072;7.800;2023-05-07T10:21:13;3.53;;;3.30;;
63555;SDS011;49700;48.072;7.800;2023-05-07T10:23:47;3.17;;;2.90;;
63555;SDS011;49700;48.072;7.800;2023-05-07T10:26:15;2.70;;;2.50;;
63555;SDS011;49700;48.072;7.800;2023-05-07T10:28:44;3.57;;;3.17;;
63555;SDS011;49700;48.072;7.800;2023-05-07T10:31:24;4.13;;;3.83;;
63555;SDS011;49700;48.072;7.800;2023-05-07T10:34:21;3.20;;;3.00;;
63555;SDS011;49700;48.072;7.800;2023-05-07T10:36:50;3.43;;;3.13;;
63555;SDS011;49700;48.072;7.800;2023-05-07T10:39:18;3.83;;;2.80;;
63555;SDS011;49700;48.072;7.800;2023-05-07T10:41:45;3.90;;;3.53;;
63555;SDS011;49700;48.072;7.800;2023-05-07T10:44:11;2.87;;;2.67;;
63555;SDS011;49700;48.072;7.800;2023-05-07T10:46:37;3.23;;;3.00;;
63555;SDS011;49700;48.072;7.800;2023-05-07T10:49:16;4.80;;;3.80;;
63555;SDS011;49700;48.072;7.800;2023-05-07T10:54:46;6.90;;;4.37;;
63555;SDS011;49700;48.072;7.800;2023-05-07T11:05:30;5.65;;;5.00;;
63555;SDS011;49700;48.072;7.800;2023-05-07T11:08:20;9.93;;;5.67;;
63555;SDS011;49700;48.072;7.800;2023-05-07T11:10:55;5.23;;;4.43;;
63555;SDS011;49700;48.072;7.800;2023-05-07T11:13:41;5.33;;;4.83;;
63555;SDS011;49700;48.072;7.800;2023-05-07T11:16:21;7.63;;;4.70;;
63555;SDS011;49700;48.072;7.800;2023-05-07T11:18:54;5.90;;;4.90;;
63555;SDS011;49700;48.072;7.800;2023-05-07T11:21:31;6.10;;;4.57;;
63555;SDS011;49700;48.072;7.800;2023-05-07T11:24:07;5.13;;;4.63;;
63555;SDS011;49700;48.072;7.800;2023-05-07T11:27:07;6.40;;;4.87;;
63555;SDS011;49700;48.072;7.800;2023-05-07T11:29:33;6.83;;;5.70;;
63555;SDS011;49700;48.072;7.800;2023-05-07T11:32:05;5.80;;;4.50;;
63555;SDS011;49700;48.072;7.800;2023-05-07T11:34:37;4.87;;;4.47;;
63555;SDS011;49700;48.072;7.800;2023-05-07T11:37:03;4.83;;;4.33;;
63555;SDS011;49700;48.072;7.800;2023-05-07T11:42:40;5.20;;;4.80;;
63555;SDS011;49700;48.072;7.800;2023-05-07T11:45:08;4.90;;;3.97;;
63555;SDS011;49700;48.072;7.800;2023-05-07T11:47:34;5.73;;;4.70;;
63555;SDS011;49700;48.072;7.800;2023-05-07T11:50:06;4.90;;;4.40;;
63555;SDS011;49700;48.072;7.800;2023-05-07T11:52:33;5.10;;;4.20;;
63555;SDS011;49700;48.072;7.800;2023-05-07T11:54:59;5.43;;;4.60;;
63555;SDS011;49700;48.072;7.800;2023-05-07T11:57:26;4.70;;;4.27;;
63555;SDS011;49700;48.072;7.800;2023-05-07T11:59:55;4.20;;;3.80;;
63555;SDS011;49700;48.072;7.800;2023-05-07T12:02:22;4.30;;;3.90;;
63555;SDS011;49700;48.072;7.800;2023-05-07T12:04:49;4.68;;;4.18;;
63555;SDS011;49700;48.072;7.800;2023-05-07T12:07:15;5.45;;;4.47;;
63555;SDS011;49700;48.072;7.800;2023-05-07T12:09:41;6.63;;;3.70;;
63555;SDS011;49700;48.072;7.800;2023-05-07T12:12:08;4.83;;;4.33;;
63555;SDS011;49700;48.072;7.800;2023-05-07T12:14:40;6.53;;;3.80;;
63555;SDS011;49700;48.072;7.800;2023-05-07T12:17:09;5.27;;;4.03;;
63555;SDS011;49700;48.072;7.800;2023-05-07T12:19:37;4.90;;;4.27;;
63555;SDS011;49700;48.072;7.800;2023-05-07T12:22:03;4.93;;;4.43;;
63555;SDS011;49700;48.072;7.800;2023-05-07T12:24:42;6.23;;;5.17;;
63555;SDS011;49700;48.072;7.800;2023-05-07T12:27:28;5.37;;;4.97;;
63555;SDS011;49700;48.072;7.800;2023-05-07T12:29:53;4.77;;;4.37;;
63555;SDS011;49700;48.072;7.800;2023-05-07T12:32:20;4.83;;;4.30;;
63555;SDS011;49700;48.072;7.800;2023-05-07T12:34:49;6.20;;;5.60;;
63555;SDS011;49700;48.072;7.800;2023-05-07T12:37:15;5.17;;;4.53;;
63555;SDS011;49700;48.072;7.800;2023-05-07T12:40:02;5.30;;;4.57;;
63555;SDS011;49700;48.072;7.800;2023-05-07T12:42:35;5.27;;;4.87;;
63555;SDS011;49700;48.072;7.800;2023-05-07T12:45:11;4.20;;;3.80;;
63555;SDS011;49700;48.072;7.800;2023-05-07T12:47:37;5.53;;;5.00;;
63555;SDS011;49700;48.072;7.800;2023-05-07T12:50:04;5.47;;;5.07;;
63555;SDS011;49700;48.072;7.800;2023-05-07T12:52:31;3.90;;;3.60;;
63555;SDS011;49700;48.072;7.800;2023-05-07T12:54:57;4.83;;;4.03;;
63555;SDS011;49700;48.072;7.800;2023-05-07T12:57:30;5.07;;;4.57;;
63555;SDS011;49700;48.072;7.800;2023-05-07T12:59:57;3.93;;;3.50;;
63555;SDS011;49700;48.072;7.800;2023-05-07T13:02:33;3.90;;;3.60;;
63555;SDS011;49700;48.072;7.800;2023-05-07T13:05:05;4.23;;;3.73;;
63555;SDS011;49700;48.072;7.800;2023-05-07T13:07:31;4.93;;;4.23;;
63555;SDS011;49700;48.072;7.800;2023-05-07T13:09:56;4.27;;;3.87;;
63555;SDS011;49700;48.072;7.800;2023-05-07T13:12:22;4.00;;;3.30;;
63555;SDS011;49700;48.072;7.800;2023-05-07T13:14:47;3.77;;;3.47;;
63555;SDS011;49700;48.072;7.800;2023-05-07T13:17:12;4.37;;;3.50;;
63555;SDS011;49700;48.072;7.800;2023-05-07T13:19:38;3.63;;;3.27;;
63555;SDS011;49700;48.072;7.800;2023-05-07T13:22:03;3.53;;;3.23;;
63555;SDS011;49700;48.072;7.800;2023-05-07T13:24:29;3.27;;;3.07;;
63555;SDS011;49700;48.072;7.800;2023-05-07T13:26:54;4.47;;;4.10;;
63555;SDS011;49700;48.072;7.800;2023-05-07T13:29:20;4.03;;;3.73;;
63555;SDS011;49700;48.072;7.800;2023-05-07T13:31:53;4.20;;;3.83;;
63555;SDS011;49700;48.072;7.800;2023-05-07T13:34:19;4.95;;;4.55;;
63555;SDS011;49700;48.072;7.800;2023-05-07T13:36:45;3.93;;;3.17;;
63555;SDS011;49700;48.072;7.800;2023-05-07T13:39:10;5.47;;;4.10;;
63555;SDS011;49700;48.072;7.800;2023-05-07T13:44:16;4.13;;;3.70;;
63555;SDS011;49700;48.072;7.800;2023-05-07T13:46:42;4.27;;;3.87;;
63555;SDS011;49700;48.072;7.800;2023-05-07T13:49:07;4.00;;;3.70;;
63555;SDS011;49700;48.072;7.800;2023-05-07T13:51:32;3.43;;;3.13;;
63555;SDS011;49700;48.072;7.800;2023-05-07T13:53:58;3.70;;;3.33;;
63555;SDS011;49700;48.072;7.800;2023-05-07T13:56:23;2.60;;;2.40;;
63555;SDS011;49700;48.072;7.800;2023-05-07T13:58:49;2.40;;;2.20;;
63555;SDS011;49700;48.072;7.800;2023-05-07T14:01:14;2.90;;;2.70;;
63555;SDS011;49700;48.072;7.800;2023-05-07T14:03:39;3.53;;;2.60;;
63555;SDS011;49700;48.072;7.800;2023-05-07T14:06:05;3.37;;;3.07;;
63555;SDS011;49700;48.072;7.800;2023-05-07T14:08:30;2.30;;;2.10;;
63555;SDS011;49700;48.072;7.800;2023-05-07T14:10:56;2.73;;;2.53;;
63555;SDS011;49700;48.072;7.800;2023-05-07T14:13:21;3.00;;;2.50;;
63555;SDS011;49700;48.072;7.800;2023-05-07T14:15:46;3.60;;;2.97;;
63555;SDS011;49700;48.072;7.800;2023-05-07T14:18:14;3.30;;;3.03;;
63555;SDS011;49700;48.072;7.800;2023-05-07T14:20:40;3.73;;;3.43;;
63555;SDS011;49700;48.072;7.800;2023-05-07T14:23:05;4.00;;;3.57;;
63555;SDS011;49700;48.072;7.800;2023-05-07T14:25:31;3.57;;;3.27;;
63555;SDS011;49700;48.072;7.800;2023-05-07T14:27:57;2.83;;;2.63;;
63555;SDS011;49700;48.072;7.800;2023-05-07T14:30:22;3.07;;;2.80;;
63555;SDS011;49700;48.072;7.800;2023-05-07T14:32:49;3.60;;;3.30;;
63555;SDS011;49700;48.072;7.800;2023-05-07T14:35:15;3.10;;;2.80;;
63555;SDS011;49700;48.072;7.800;2023-05-07T14:37:41;3.03;;;2.70;;
63555;SDS011;49700;48.072;7.800;2023-05-07T14:40:06;3.37;;;3.00;;
63555;SDS011;49700;48.072;7.800;2023-05-07T14:42:32;3.40;;;2.93;;
63555;SDS011;49700;48.072;7.800;2023-05-07T14:44:58;3.67;;;3.37;;
63555;SDS011;49700;48.072;7.800;2023-05-07T14:47:23;4.83;;;3.23;;
63555;SDS011;49700;48.072;7.800;2023-05-07T14:49:48;3.83;;;3.23;;
63555;SDS011;49700;48.072;7.800;2023-05-07T14:52:14;3.30;;;3.10;;
63555;SDS011;49700;48.072;7.800;2023-05-07T14:54:39;3.50;;;2.53;;
63555;SDS011;49700;48.072;7.800;2023-05-07T14:57:05;2.80;;;2.60;;
63555;SDS011;49700;48.072;7.800;2023-05-07T14:59:31;3.17;;;2.70;;
63555;SDS011;49700;48.072;7.800;2023-05-07T15:01:57;2.90;;;2.70;;
63555;SDS011;49700;48.072;7.800;2023-05-07T15:04:23;2.97;;;2.67;;
63555;SDS011;49700;48.072;7.800;2023-05-07T15:06:49;3.60;;;3.30;;
63555;SDS011;49700;48.072;7.800;2023-05-07T15:09:14;3.00;;;2.70;;
63555;SDS011;49700;48.072;7.800;2023-05-07T15:11:40;5.27;;;3.20;;
63555;SDS011;49700;48.072;7.800;2023-05-07T15:14:06;3.97;;;3.67;;